Time,TemperatureF,DewpointF,PressureIn,WindDirection,WindDirectionDegrees,WindSpeedMPH,WindSpeedGustMPH,Humidity,HourlyPrecipIn,Conditions,Clouds,dailyrainin,SolarRadiationWatts/m^2,SoftwareType,DateUTC
2013-09-08 00:23:00,65.0,47.0,29.84,West,275,1.0,3.0,52,0.00,,,0.00,0.000000,,2013-09-08 07:23:00,
2013-09-08 00:32:00,65.0,47.0,29.84,West,275,1.0,3.0,52,0.00,,,0.00,0.000000,,2013-09-08 07:32:00,
2013-09-08 00:42:00,65.0,47.0,29.84,West,275,1.0,3.0,52,0.00,,,0.00,0.000000,,2013-09-08 07:42:00,
2013-09-08 00:52:00,65.0,47.0,29.84,West,275,1.0,3.0,52,0.00,,,0.00,0.000000,,2013-09-08 07:52:00,
2013-09-08 01:22:00,64.0,48.0,29.84,North,355,1.0,3.0,57,0.00,,,0.00,0.000000,,2013-09-08 08:22:00,
2013-09-08 01:32:00,64.0,48.0,29.84,North,355,1.0,3.0,57,0.00,,,0.00,0.000000,,2013-09-08 08:32:00,
2013-09-08 01:42:00,64.0,48.0,29.84,North,355,1.0,3.0,57,0.00,,,0.00,0.000000,,2013-09-08 08:42:00,
2013-09-08 01:52:00,64.0,48.0,29.84,North,355,1.0,3.0,57,0.00,,,0.00,0.000000,,2013-09-08 08:52:00,
2013-09-08 02:22:00,61.0,44.0,29.83,NNE,20,2.0,3.0,53,0.00,,,0.00,0.000000,,2013-09-08 09:22:00,
2013-09-08 02:33:00,61.0,44.0,29.83,NNE,20,2.0,3.0,53,0.00,,,0.00,0.000000,,2013-09-08 09:33:00,
2013-09-08 02:43:00,61.0,44.0,29.83,NNE,20,2.0,3.0,53,0.00,,,0.00,0.000000,,2013-09-08 09:43:00,
2013-09-08 02:53:00,61.0,44.0,29.83,NNE,20,2.0,3.0,53,0.00,,,0.00,0.000000,,2013-09-08 09:53:00,
2013-09-08 03:23:00,63.0,44.0,29.83,WNW,284,1.0,3.0,49,0.00,,,0.00,0.000000,,2013-09-08 10:23:00,
2013-09-08 03:33:00,63.0,44.0,29.83,WNW,284,1.0,3.0,49,0.00,,,0.00,0.000000,,2013-09-08 10:33:00,
2013-09-08 03:42:00,63.0,44.0,29.83,WNW,284,1.0,3.0,49,0.00,,,0.00,0.000000,,2013-09-08 10:42:00,
2013-09-08 03:53:00,63.0,44.0,29.83,WNW,284,1.0,3.0,49,0.00,,,0.00,0.000000,,2013-09-08 10:53:00,
2013-09-08 05:22:00,61.0,42.0,29.82,NNW,344,1.0,3.0,49,0.00,,,0.00,0.000000,,2013-09-08 12:22:00,
2013-09-08 05:32:00,61.0,42.0,29.82,NNW,344,1.0,3.0,49,0.00,,,0.00,0.000000,,2013-09-08 12:32:00,
2013-09-08 08:23:00,67.0,44.0,29.84,South,186,1.0,2.0,43,0.00,,,0.00,60.000000,,2013-09-08 15:23:00,
2013-09-08 08:34:00,67.0,44.0,29.84,South,186,1.0,2.0,43,0.00,,,0.00,60.000000,,2013-09-08 15:34:00,
2013-09-08 10:23:00,81.0,56.0,29.83,South,176,12.0,20.0,43,0.00,,,0.00,542.000000,,2013-09-08 17:23:00,
2013-09-08 10:34:00,81.0,56.0,29.83,South,176,12.0,20.0,43,0.00,,,0.00,542.000000,,2013-09-08 17:34:00,
2013-09-08 10:43:00,81.0,56.0,29.83,South,176,12.0,20.0,43,0.00,,,0.00,542.000000,,2013-09-08 17:43:00,
2013-09-08 10:53:00,81.0,56.0,29.83,South,176,12.0,20.0,43,0.00,,,0.00,542.000000,,2013-09-08 17:53:00,
2013-09-08 11:22:00,83.0,58.0,29.82,South,175,19.0,26.0,43,0.00,,,0.00,751.000000,,2013-09-08 18:22:00,
2013-09-08 11:32:00,83.0,58.0,29.82,South,175,19.0,26.0,43,0.00,,,0.00,751.000000,,2013-09-08 18:32:00,
2013-09-08 11:42:00,83.0,58.0,29.82,South,175,19.0,26.0,43,0.00,,,0.00,751.000000,,2013-09-08 18:42:00,
2013-09-08 11:52:00,83.0,58.0,29.82,South,175,19.0,26.0,43,0.00,,,0.00,751.000000,,2013-09-08 18:52:00,
2013-09-08 12:22:00,84.0,57.0,29.82,South,178,21.0,31.0,40,0.00,,,0.00,878.000000,,2013-09-08 19:22:00,
2013-09-08 12:32:00,84.0,57.0,29.82,South,178,21.0,31.0,40,0.00,,,0.00,878.000000,,2013-09-08 19:32:00,
2013-09-08 12:42:00,84.0,57.0,29.82,South,178,21.0,31.0,40,0.00,,,0.00,878.000000,,2013-09-08 19:42:00,
2013-09-08 12:52:00,84.0,57.0,29.82,South,178,21.0,31.0,40,0.00,,,0.00,878.000000,,2013-09-08 19:52:00,
2013-09-08 13:22:00,85.0,57.0,29.80,South,176,21.0,34.0,38,0.00,,,0.00,948.000000,,2013-09-08 20:22:00,
2013-09-08 13:32:00,85.0,57.0,29.80,South,176,21.0,34.0,38,0.00,,,0.00,948.000000,,2013-09-08 20:32:00,
2013-09-08 13:42:00,85.0,57.0,29.80,South,176,21.0,34.0,38,0.00,,,0.00,948.000000,,2013-09-08 20:42:00,
2013-09-08 13:53:00,85.0,57.0,29.80,South,176,21.0,34.0,38,0.00,,,0.00,948.000000,,2013-09-08 20:53:00,
2013-09-08 14:22:00,83.0,56.0,29.78,South,175,18.0,36.0,40,0.00,,,0.00,939.000000,,2013-09-08 21:22:00,
2013-09-08 14:34:00,83.0,56.0,29.78,South,175,18.0,36.0,40,0.00,,,0.00,939.000000,,2013-09-08 21:34:00,
2013-09-08 14:43:00,83.0,56.0,29.78,South,175,18.0,36.0,40,0.00,,,0.00,939.000000,,2013-09-08 21:43:00,
2013-09-08 14:54:00,83.0,56.0,29.78,South,175,18.0,36.0,40,0.00,,,0.00,939.000000,,2013-09-08 21:54:00,
2013-09-08 15:24:00,84.0,56.0,29.76,South,175,19.0,32.0,38,0.00,,,-99.99,869.000000,,2013-09-08 22:24:00,
2013-09-08 15:33:00,84.0,56.0,29.76,South,175,19.0,32.0,38,0.00,,,-99.99,869.000000,,2013-09-08 22:33:00,
2013-09-08 15:43:00,84.0,56.0,29.76,South,175,19.0,32.0,38,0.00,,,-99.99,869.000000,,2013-09-08 22:43:00,
2013-09-08 15:53:00,84.0,56.0,29.76,South,175,19.0,32.0,38,0.00,,,-99.99,869.000000,,2013-09-08 22:53:00,
2013-09-08 16:22:00,85.0,57.0,29.74,South,178,19.0,30.0,39,0.00,,,0.00,742.000000,,2013-09-08 23:22:00,
2013-09-08 16:34:00,85.0,57.0,29.74,South,178,19.0,30.0,39,0.00,,,0.00,742.000000,,2013-09-08 23:34:00,
2013-09-08 16:42:00,85.0,57.0,29.74,South,178,19.0,30.0,39,0.00,,,0.00,742.000000,,2013-09-08 23:42:00,
2013-09-08 16:52:00,85.0,57.0,29.74,South,178,19.0,30.0,39,0.00,,,0.00,742.000000,,2013-09-08 23:52:00,
2013-09-08 17:22:00,82.0,55.0,29.73,South,179,16.0,32.0,39,0.00,,,0.00,562.000000,,2013-09-09 00:22:00,
2013-09-08 17:32:00,82.0,55.0,29.73,South,179,16.0,32.0,39,0.00,,,0.00,562.000000,,2013-09-09 00:32:00,
2013-09-08 17:42:00,82.0,55.0,29.73,South,179,16.0,32.0,39,0.00,,,0.00,562.000000,,2013-09-09 00:42:00,
2013-09-08 17:52:00,82.0,55.0,29.73,South,179,16.0,32.0,39,0.00,,,0.00,562.000000,,2013-09-09 00:52:00,
2013-09-08 18:21:00,81.0,56.0,29.73,NNW,331,9.0,27.0,42,0.00,,,0.00,348.000000,,2013-09-09 01:21:00,
2013-09-08 18:32:00,81.0,56.0,29.73,NNW,331,9.0,27.0,42,0.00,,,0.00,348.000000,,2013-09-09 01:32:00,
2013-09-08 18:42:00,81.0,56.0,29.73,NNW,331,9.0,27.0,42,0.00,,,0.00,348.000000,,2013-09-09 01:42:00,
2013-09-08 18:52:00,81.0,56.0,29.73,NNW,331,9.0,27.0,42,0.00,,,0.00,348.000000,,2013-09-09 01:52:00,
2013-09-08 19:22:00,69.0,57.0,29.74,SSE,149,8.0,17.0,65,0.00,,,0.00,101.000000,,2013-09-09 02:22:00,
2013-09-08 19:32:00,69.0,57.0,29.74,SSE,149,8.0,17.0,65,0.00,,,0.00,101.000000,,2013-09-09 02:32:00,
2013-09-08 19:42:00,69.0,57.0,29.74,SSE,149,8.0,17.0,65,0.00,,,0.00,101.000000,,2013-09-09 02:42:00,
2013-09-08 19:52:00,69.0,57.0,29.74,SSE,149,8.0,17.0,65,0.00,,,0.00,101.000000,,2013-09-09 02:52:00,
2013-09-08 20:44:00,67.0,60.0,29.75,SSE,152,5.0,13.0,77,0.00,,,0.00,3.000000,,2013-09-09 03:44:00,
2013-09-08 20:55:00,67.0,60.0,29.75,SSE,152,5.0,13.0,77,0.00,,,0.00,3.000000,,2013-09-09 03:55:00,
2013-09-08 21:24:00,66.0,59.0,29.77,South,180,2.0,7.0,78,0.00,,,0.00,0.000000,,2013-09-09 04:24:00,
2013-09-08 21:33:00,66.0,59.0,29.77,South,180,2.0,7.0,78,0.00,,,0.00,0.000000,,2013-09-09 04:33:00,
2013-09-08 21:43:00,66.0,59.0,29.77,South,180,2.0,7.0,78,0.00,,,0.00,0.000000,,2013-09-09 04:43:00,
2013-09-08 21:54:00,66.0,59.0,29.77,South,180,2.0,7.0,78,0.00,,,0.00,0.000000,,2013-09-09 04:54:00,
2013-09-08 22:23:00,64.0,58.0,29.78,SW,224,1.0,7.0,82,0.00,,,0.00,0.000000,,2013-09-09 05:23:00,
2013-09-08 22:34:00,64.0,58.0,29.78,SW,224,1.0,7.0,82,0.00,,,0.00,0.000000,,2013-09-09 05:34:00,
2013-09-08 22:43:00,64.0,58.0,29.78,SW,224,1.0,7.0,82,0.00,,,0.00,0.000000,,2013-09-09 05:43:00,
2013-09-08 22:52:00,64.0,58.0,29.78,SW,224,1.0,7.0,82,0.00,,,0.00,0.000000,,2013-09-09 05:52:00,
2013-09-08 23:21:00,61.0,57.0,29.79,SW,220,2.0,7.0,86,0.00,,,0.00,0.000000,,2013-09-09 06:21:00,
2013-09-08 23:32:00,61.0,57.0,29.79,SW,220,2.0,7.0,86,0.00,,,0.00,0.000000,,2013-09-09 06:32:00,
2013-09-08 23:42:00,61.0,57.0,29.79,SW,220,2.0,7.0,86,0.00,,,0.00,0.000000,,2013-09-09 06:42:00,
2013-09-08 23:52:00,61.0,57.0,29.79,SW,220,2.0,7.0,86,0.00,,,0.00,0.000000,,2013-09-09 06:52:00,